Time;durP1;ratioP1;P1;durP2;ratioP2;P2;SDS_P1;SDS_P2;PMS_P1;PMS_P2;Temp;Humidity;BMP_temperature;BMP_pressure;BME280_temperature;BME280_humidity;BME280_pressure;Samples;Min_cycle;Max_cycle;Signal;HPM_P1;HPM_P2
2023/04/25 00:01:13;;;;;;;0.80;0.80;;;;;;;12.81;68.22;98528.81;4432850;32;34467;-81
2023/04/25 00:03:44;;;;;;;0.70;0.70;;;;;;;12.76;68.35;98525.56;4431860;32;33352;-80
2023/04/25 00:06:13;;;;;;;0.70;0.70;;;;;;;12.69;68.54;98522.34;4436999;32;33012;-80
2023/04/25 00:08:42;;;;;;;1.05;0.95;;;;;;;12.69;68.36;98527.56;4440357;32;35100;-79
2023/04/25 00:11:11;;;;;;;0.70;0.70;;;;;;;12.60;68.52;98515.75;4446099;32;33650;-80
2023/04/25 00:13:41;;;;;;;0.70;0.70;;;;;;;12.46;69.16;98512.00;4437904;32;33578;-81
2023/04/25 00:16:10;;;;;;;0.70;0.70;;;;;;;12.43;69.72;98512.16;4429828;32;33822;-80
2023/04/25 00:18:40;;;;;;;0.60;0.60;;;;;;;12.64;68.54;98511.28;4429434;32;33655;-81
2023/04/25 00:21:10;;;;;;;0.98;0.98;;;;;;;12.56;69.03;98515.94;4435014;32;34078;-81
2023/04/25 00:23:39;;;;;;;0.70;0.70;;;;;;;12.55;69.01;98509.06;4434131;32;32620;-81
2023/04/25 00:26:08;;;;;;;0.70;0.70;;;;;;;12.58;68.80;98512.38;4438905;32;34682;-80
2023/04/25 00:28:39;;;;;;;0.70;0.70;;;;;;;12.72;68.32;98505.78;4441177;32;33831;-79
2023/04/25 00:31:08;;;;;;;;;;;;;;;12.62;68.82;98504.47;4432604;32;33976;-79
2023/04/25 00:33:36;;;;;;;0.70;0.70;;;;;;;12.73;68.26;98503.12;4449811;32;34441;-79
2023/04/25 00:36:07;;;;;;;0.60;0.60;;;;;;;12.71;68.21;98507.53;4439050;32;33761;-79
2023/04/25 00:38:38;;;;;;;0.70;0.70;;;;;;;12.92;67.67;98495.38;4437311;32;33914;-78
2023/04/25 00:41:08;;;;;;;0.70;0.70;;;;;;;12.63;68.69;98496.56;4442922;32;34159;-81
2023/04/25 00:43:37;;;;;;;0.93;0.90;;;;;;;12.80;68.44;98501.94;4443491;32;32630;-80
2023/04/25 00:46:06;;;;;;;0.70;0.70;;;;;;;12.89;67.90;98492.91;4431898;32;34214;-79
2023/04/25 00:48:35;;;;;;;1.10;1.08;;;;;;;12.95;67.96;98502.19;4445943;32;34117;-80
2023/04/25 00:51:04;;;;;;;0.62;0.62;;;;;;;12.84;68.35;98500.06;4435062;32;33702;-81
2023/04/25 00:53:33;;;;;;;0.73;0.73;;;;;;;12.80;68.90;98494.13;4438554;32;33147;-78
2023/04/25 00:56:03;;;;;;;0.60;0.60;;;;;;;12.75;69.23;98490.88;4442880;32;33606;-80
2023/04/25 00:58:33;;;;;;;0.90;0.90;;;;;;;12.54;69.98;98484.81;4430576;32;34409;-79
2023/04/25 01:01:02;;;;;;;0.70;0.70;;;;;;;12.50;70.35;98479.78;4429475;32;33580;-79
2023/04/25 01:03:32;;;;;;;0.82;0.82;;;;;;;12.51;70.17;98478.84;4431051;32;33082;-81
2023/04/25 01:06:02;;;;;;;0.80;0.80;;;;;;;12.47;70.58;98480.75;4447747;32;33682;-81
2023/04/25 01:08:31;;;;;;;0.73;0.73;;;;;;;12.66;70.15;98479.97;4443980;32;34564;-80
2023/04/25 01:10:59;;;;;;;1.55;1.45;;;;;;;12.53;70.13;98475.28;4433193;32;33759;-78
2023/04/25 01:13:31;;;;;;;1.35;1.25;;;;;;;12.15;71.69;98482.00;4443718;32;33636;-80
2023/04/25 01:16:00;;;;;;;0.60;0.60;;;;;;;12.27;71.07;98472.88;4434050;32;34407;-80
2023/04/25 01:18:33;;;;;;;0.70;0.70;;;;;;;12.61;69.37;98477.56;4429599;32;33818;-79
2023/04/25 01:21:08;;;;;;;0.70;0.70;;;;;;;12.42;69.56;98480.09;4437353;32;35889;-81
2023/04/25 01:23:37;;;;;;;0.62;0.62;;;;;;;12.49;69.21;98473.75;4438033;32;32771;-80
2023/04/25 01:26:07;;;;;;;0.85;0.85;;;;;;;12.58;68.77;98480.31;4430214;32;33830;-82
2023/04/25 01:28:36;;;;;;;0.70;0.70;;;;;;;12.41;68.45;98469.75;4435856;32;33724;-79
2023/04/25 01:31:06;;;;;;;0.70;0.70;;;;;;;12.46;68.55;98473.84;4430306;32;33711;-79
2023/04/25 01:33:35;;;;;;;0.70;0.70;;;;;;;12.14;68.40;98482.94;4441016;32;33487;-79
2023/04/25 01:36:06;;;;;;;0.70;0.70;;;;;;;12.12;68.37;98482.97;4438672;32;33132;-81
2023/04/25 01:38:36;;;;;;;0.70;0.70;;;;;;;12.27;67.75;98476.31;4434990;32;34453;-80
2023/04/25 01:41:06;;;;;;;0.70;0.70;;;;;;;12.10;67.49;98476.16;4433074;32;33826;-81
2023/04/25 01:43:35;;;;;;;1.00;0.90;;;;;;;12.08;67.24;98467.56;4439402;32;33451;-78
2023/04/25 01:46:04;;;;;;;0.80;0.80;;;;;;;12.44;66.76;98474.81;4438126;32;33128;-79
2023/04/25 01:48:33;;;;;;;0.85;0.85;;;;;;;12.48;66.25;98484.19;4431995;32;34004;-79
2023/04/25 01:51:02;;;;;;;0.70;0.70;;;;;;;12.63;65.10;98477.53;4446492;32;33799;-81
2023/04/25 01:53:33;;;;;;;1.75;0.95;;;;;;;12.20;65.89;98466.22;4441430;32;34164;-81
2023/04/25 01:56:02;;;;;;;0.90;0.90;;;;;;;12.32;65.42;98470.94;4439046;32;33468;-81
2023/04/25 01:58:33;;;;;;;0.70;0.70;;;;;;;12.07;65.97;98469.31;4434592;32;33246;-78
2023/04/25 02:01:02;;;;;;;0.62;0.62;;;;;;;12.25;65.25;98487.69;4450426;32;34059;-79
2023/04/25 02:03:33;;;;;;;0.70;0.70;;;;;;;12.12;65.36;98482.13;4433899;32;31588;-81
2023/04/25 02:06:02;;;;;;;0.70;0.70;;;;;;;12.07;65.97;98476.28;4435766;32;34610;-79
2023/04/25 02:08:37;;;;;;;0.75;0.75;;;;;;;12.10;65.33;98476.16;4441141;32;34617;-81
2023/04/25 02:11:06;;;;;;;0.80;0.80;;;;;;;12.00;66.12;98478.25;4445022;32;34103;-80
2023/04/25 02:13:35;;;;;;;0.80;0.80;;;;;;;11.98;65.67;98479.22;4442965;32;33756;-81
2023/04/25 02:16:04;;;;;;;0.77;0.77;;;;;;;12.01;65.79;98481.69;4435366;32;34436;-79
2023/04/25 02:18:33;;;;;;;0.70;0.70;;;;;;;12.40;64.22;98483.66;4443268;32;33545;-78
2023/04/25 02:21:02;;;;;;;1.77;1.60;;;;;;;12.03;64.65;98483.31;4429376;32;34526;-78
2023/04/25 02:23:31;;;;;;;3.30;0.95;;;;;;;11.88;65.29;98489.12;4441625;32;33685;-79
2023/04/25 02:26:02;;;;;;;0.70;0.70;;;;;;;11.87;65.42;98485.69;4444123;32;33845;-79
2023/04/25 02:28:31;;;;;;;0.90;0.90;;;;;;;12.04;64.99;98481.59;4434121;32;34362;-79
2023/04/25 02:31:00;;;;;;;0.90;0.90;;;;;;;12.31;63.61;98475.31;4431399;32;34096;-80
2023/04/25 02:33:29;;;;;;;0.70;0.70;;;;;;;12.28;63.65;98472.00;4440099;32;32675;-79
2023/04/25 02:35:58;;;;;;;0.70;0.70;;;;;;;12.32;63.52;98474.41;4443727;32;34205;-81
2023/04/25 02:38:28;;;;;;;0.80;0.80;;;;;;;12.01;64.33;98469.56;4444837;32;33672;-79
2023/04/25 02:40:58;;;;;;;1.30;1.05;;;;;;;12.22;63.68;98480.84;4429490;32;33274;-81
2023/04/25 02:43:28;;;;;;;1.30;1.25;;;;;;;12.55;62.65;98483.87;4436618;32;34077;-81
2023/04/25 02:45:57;;;;;;;0.80;0.80;;;;;;;12.36;62.99;98480.31;4450049;32;33847;-80
2023/04/25 02:48:26;;;;;;;0.75;0.75;;;;;;;12.28;63.23;98479.78;4444466;32;34948;-78
2023/04/25 02:50:55;;;;;;;1.00;1.00;;;;;;;12.17;63.54;98473.25;4441215;32;33704;-79
2023/04/25 02:53:24;;;;;;;0.80;0.80;;;;;;;12.30;63.12;98478.81;4440536;32;33208;-79
2023/04/25 02:55:53;;;;;;;0.88;0.80;;;;;;;12.07;63.49;98478.88;4438696;32;34438;-80
2023/04/25 02:58:22;;;;;;;1.08;1.00;;;;;;;12.11;63.41;98472.66;4445485;32;33771;-80
2023/04/25 03:00:52;;;;;;;0.70;0.70;;;;;;;11.94;63.42;98474.16;4439710;32;33330;-81
2023/04/25 03:03:22;;;;;;;0.80;0.80;;;;;;;12.01;63.10;98463.50;4430474;32;32912;-81
2023/04/25 03:05:52;;;;;;;0.85;0.85;;;;;;;11.97;63.42;98473.19;4434359;32;32608;-81
2023/04/25 03:08:21;;;;;;;1.27;1.23;;;;;;;12.09;63.28;98474.47;4438637;32;34874;-80
2023/04/25 03:10:51;;;;;;;0.80;0.80;;;;;;;11.89;63.35;98475.25;4437285;32;34072;-80
2023/04/25 03:13:20;;;;;;;1.15;1.02;;;;;;;11.88;63.51;98476.97;4435442;32;33452;-79
2023/04/25 03:15:49;;;;;;;0.80;0.80;;;;;;;11.54;64.49;98480.78;4438463;32;34218;-79
2023/04/25 03:18:21;;;;;;;0.90;0.90;;;;;;;11.47;64.75;98476.72;4436367;32;33122;-80
2023/04/25 03:20:50;;;;;;;0.90;0.90;;;;;;;11.62;64.61;98477.06;4437932;32;32987;-79
2023/04/25 03:23:18;;;;;;;0.80;0.80;;;;;;;11.70;64.22;98477.66;4431004;32;33146;-80
2023/04/25 03:25:47;;;;;;;0.80;0.80;;;;;;;11.58;64.78;98476.34;4430526;32;33408;-79
2023/04/25 03:28:16;;;;;;;0.70;0.70;;;;;;;11.63;64.79;98476.16;4430997;32;34051;-80
2023/04/25 03:30:45;;;;;;;0.80;0.80;;;;;;;11.65;64.83;98476.97;4434155;32;33406;-81
2023/04/25 03:33:14;;;;;;;1.35;1.25;;;;;;;11.57;64.74;98484.19;4430272;32;32607;-79
2023/04/25 03:35:46;;;;;;;0.70;0.70;;;;;;;11.55;64.60;98481.66;4444751;32;33760;-81
2023/04/25 03:38:15;;;;;;;0.80;0.80;;;;;;;11.72;64.26;98468.03;4434348;32;33947;-81
2023/04/25 03:40:44;;;;;;;0.82;0.82;;;;;;;11.65;64.57;98480.41;4442202;32;34090;-81
2023/04/25 03:43:14;;;;;;;0.80;0.80;;;;;;;11.45;65.56;98470.75;4442104;32;34997;-79
2023/04/25 03:45:44;;;;;;;1.05;0.95;;;;;;;11.68;65.05;98482.03;4444297;32;34641;-79
2023/04/25 03:48:13;;;;;;;0.85;0.85;;;;;;;11.49;65.38;98492.25;4433722;32;33865;-79
2023/04/25 03:50:42;;;;;;;0.80;0.80;;;;;;;11.34;66.41;98485.88;4437247;32;34639;-81
2023/04/25 03:53:12;;;;;;;0.80;0.80;;;;;;;11.41;66.24;98479.56;4441394;32;33215;-79
2023/04/25 03:55:44;;;;;;;0.80;0.80;;;;;;;11.13;67.09;98484.84;4437931;32;32629;-81
2023/04/25 03:58:14;;;;;;;0.80;0.80;;;;;;;11.43;66.42;98485.53;4429655;32;33844;-80
2023/04/25 04:00:43;;;;;;;0.80;0.80;;;;;;;11.60;65.86;98489.25;4428860;32;34609;-80
2023/04/25 04:03:12;;;;;;;0.85;0.85;;;;;;;11.36;66.40;98499.66;4435248;32;32739;-81
2023/04/25 04:05:41;;;;;;;0.80;0.80;;;;;;;11.21;67.17;98494.97;4430097;32;33113;-79
2023/04/25 04:08:10;;;;;;;1.42;1.20;;;;;;;11.08;67.50;98490.22;4430389;32;33945;-79
2023/04/25 04:10:41;;;;;;;0.90;0.90;;;;;;;11.18;67.50;98500.28;4435343;32;34490;-81
2023/04/25 04:13:11;;;;;;;0.80;0.80;;;;;;;11.18;67.62;98503.72;4435077;32;33652;-80
2023/04/25 04:15:40;;;;;;;0.80;0.80;;;;;;;11.29;67.57;98500.75;4434949;32;33509;-79
2023/04/25 04:18:09;;;;;;;0.95;0.93;;;;;;;11.55;67.10;98499.84;4432387;32;33830;-81
2023/04/25 04:20:38;;;;;;;2.10;2.00;;;;;;;11.44;66.90;98507.16;4434693;32;192881;-80
2023/04/25 04:23:07;;;;;;;0.75;0.75;;;;;;;10.99;68.71;98511.28;4432539;32;33732;-79
2023/04/25 04:25:41;;;;;;;1.00;1.00;;;;;;;11.15;68.87;98509.03;4444613;32;33499;-80
2023/04/25 04:28:11;;;;;;;0.80;0.80;;;;;;;11.22;68.70;98504.47;4438516;32;35333;-79
2023/04/25 04:30:41;;;;;;;0.80;0.80;;;;;;;10.88;69.68;98505.63;4437904;32;33857;-81
2023/04/25 04:33:11;;;;;;;0.80;0.80;;;;;;;10.91;70.20;98518.47;4435070;32;35594;-79
2023/04/25 04:35:41;;;;;;;0.90;0.90;;;;;;;10.96;70.70;98503.59;4433907;32;33366;-80
2023/04/25 04:38:11;;;;;;;0.70;0.70;;;;;;;10.87;71.74;98519.47;4438698;32;34840;-80
2023/04/25 04:40:42;;;;;;;0.80;0.80;;;;;;;10.96;71.90;98513.97;4430057;32;33636;-81
2023/04/25 04:43:11;;;;;;;;;;;;;;;10.93;71.21;98515.84;4429244;32;33831;-79
2023/04/25 04:45:40;;;;;;;1.23;1.10;;;;;;;11.07;71.76;98519.66;4435035;32;33821;-81
2023/04/25 04:48:11;;;;;;;0.80;0.80;;;;;;;10.79;73.27;98511.94;4437048;32;35159;-79
2023/04/25 04:50:41;;;;;;;1.00;1.00;;;;;;;10.78;73.61;98514.63;4432107;32;33381;-80
2023/04/25 04:53:11;;;;;;;0.80;0.80;;;;;;;10.65;74.55;98512.38;4436290;32;33023;-81
2023/04/25 04:55:40;;;;;;;0.93;0.93;;;;;;;10.69;74.88;98507.97;4434032;32;32939;-82
2023/04/25 04:58:11;;;;;;;1.87;1.50;;;;;;;10.68;74.53;98504.53;4440014;32;33743;-80
2023/04/25 05:00:40;;;;;;;0.80;0.80;;;;;;;10.68;75.72;98504.53;4435859;32;33033;-79
2023/04/25 05:03:09;;;;;;;0.70;0.70;;;;;;;10.77;75.79;98516.34;4445389;32;32964;-79
2023/04/25 05:05:39;;;;;;;1.50;1.40;;;;;;;10.64;75.82;98518.50;4438682;32;34605;-79
2023/04/25 05:08:09;;;;;;;0.80;0.80;;;;;;;10.38;76.67;98529.69;4436226;32;33190;-79
2023/04/25 05:10:39;;;;;;;0.80;0.80;;;;;;;10.07;79.21;98518.53;4435756;32;33823;-80
2023/04/25 05:13:08;;;;;;;0.80;0.80;;;;;;;10.16;79.36;98511.31;4431307;32;32697;-82
2023/04/25 05:15:39;;;;;;;1.05;0.90;;;;;;;10.57;77.95;98514.41;4438047;32;33846;-84
2023/04/25 05:18:08;;;;;;;0.93;0.93;;;;;;;10.65;77.40;98507.19;4441172;32;33829;-80
2023/04/25 05:20:37;;;;;;;0.80;0.80;;;;;;;10.58;77.38;98516.09;4436052;32;33924;-83
2023/04/25 05:23:06;;;;;;;0.80;0.80;;;;;;;10.29;79.00;98521.34;4451124;32;33273;-80
2023/04/25 05:25:35;;;;;;;0.80;0.80;;;;;;;10.37;79.71;98514.19;4440649;32;34322;-80
2023/04/25 05:28:04;;;;;;;0.90;0.90;;;;;;;10.41;79.39;98510.59;4429875;32;33674;-83
2023/04/25 05:30:38;;;;;;;1.05;1.02;;;;;;;10.03;80.51;98507.41;4442474;32;33399;-81
2023/04/25 05:33:07;;;;;;;0.80;0.80;;;;;;;10.09;81.56;98514.97;4448384;32;33486;-81
2023/04/25 05:35:36;;;;;;;0.80;0.80;;;;;;;10.00;81.74;98518.72;4439231;32;34606;-81
2023/04/25 05:38:05;;;;;;;1.42;1.33;;;;;;;9.97;82.15;98530.91;4438989;32;33653;-82
2023/04/25 05:40:35;;;;;;;0.90;0.90;;;;;;;9.92;82.61;98517.22;4445227;32;33734;-84
2023/04/25 05:43:05;;;;;;;0.90;0.90;;;;;;;10.00;82.14;98513.53;4436325;32;33287;-82
2023/04/25 05:45:34;;;;;;;0.80;0.80;;;;;;;9.95;82.44;98509.38;4450941;32;33647;-81
2023/04/25 05:48:05;;;;;;;1.23;1.20;;;;;;;9.85;83.16;98510.53;4438037;32;33547;-82
2023/04/25 05:50:35;;;;;;;1.00;1.00;;;;;;;9.99;81.99;98510.97;4437574;32;33884;-81
2023/04/25 05:53:05;;;;;;;0.80;0.80;;;;;;;10.22;81.79;98512.84;4433954;32;33353;-81
2023/04/25 05:55:34;;;;;;;0.88;0.88;;;;;;;9.98;83.36;98506.72;4433444;32;33447;-82
2023/04/25 05:58:06;;;;;;;1.10;1.02;;;;;;;10.22;82.62;98518.03;4428173;32;34065;-82
2023/04/25 06:00:35;;;;;;;0.90;0.90;;;;;;;10.35;81.42;98516.81;4429865;32;33221;-80
2023/04/25 06:03:09;;;;;;;0.80;0.80;;;;;;;10.10;82.05;98521.00;4429769;32;33836;-80
2023/04/25 06:05:38;;;;;;;0.80;0.80;;;;;;;10.13;81.37;98508.81;4429751;32;33383;-82
2023/04/25 06:08:07;;;;;;;1.95;0.90;;;;;;;9.91;82.69;98516.38;4435116;32;34435;-80
2023/04/25 06:10:36;;;;;;;0.70;0.70;;;;;;;10.17;82.69;98507.84;4429457;32;33963;-80
2023/04/25 06:13:05;;;;;;;0.80;0.80;;;;;;;10.27;80.47;98516.19;4429608;32;33169;-80
2023/04/25 06:15:35;;;;;;;1.17;1.17;;;;;;;10.25;80.62;98521.41;4429890;32;33340;-82
2023/04/25 06:18:05;;;;;;;0.88;0.85;;;;;;;10.33;80.30;98522.94;4434956;32;34552;-81
2023/04/25 06:20:35;;;;;;;1.08;1.08;;;;;;;10.36;78.78;98521.09;4429470;32;34562;-80
2023/04/25 06:23:04;;;;;;;0.98;0.88;;;;;;;10.40;80.63;98514.09;4444895;32;34067;-80
2023/04/25 06:25:34;;;;;;;0.90;0.90;;;;;;;10.41;78.47;98516.63;4444957;32;34634;-80
2023/04/25 06:28:04;;;;;;;1.00;1.00;;;;;;;10.61;77.71;98521.19;4449428;32;33417;-81
2023/04/25 06:30:33;;;;;;;0.80;0.80;;;;;;;10.56;78.54;98515.31;4449816;32;33515;-79
2023/04/25 06:33:02;;;;;;;1.00;1.00;;;;;;;10.51;77.95;98511.12;4444810;32;33076;-81
2023/04/25 06:35:33;;;;;;;0.80;0.80;;;;;;;10.67;77.79;98520.97;4444618;32;33788;-80
2023/04/25 06:38:02;;;;;;;0.98;0.98;;;;;;;10.66;76.06;98515.84;4440657;32;33115;-79
2023/04/25 06:40:31;;;;;;;1.25;1.17;;;;;;;10.66;75.95;98511.50;4445639;32;34137;-79
2023/04/25 06:43:00;;;;;;;1.00;1.00;;;;;;;10.81;76.24;98524.88;4444712;32;33155;-81
2023/04/25 06:45:31;;;;;;;0.90;0.90;;;;;;;10.73;75.26;98521.66;4446960;32;34343;-78
2023/04/25 06:48:00;;;;;;;1.00;1.00;;;;;;;10.80;75.16;98524.03;4444010;32;34196;-82
2023/04/25 06:50:29;;;;;;;0.93;0.93;;;;;;;10.90;75.01;98529.78;4436869;32;33969;-80
2023/04/25 06:53:01;;;;;;;0.77;0.77;;;;;;;10.96;75.12;98529.56;4435113;32;35367;-79
2023/04/25 06:55:30;;;;;;;1.48;1.37;;;;;;;11.26;74.78;98527.69;4433499;32;33518;-80
2023/04/25 06:58:00;;;;;;;0.80;0.80;;;;;;;11.29;74.18;98529.31;4446799;32;33370;-79
2023/04/25 07:00:31;;;;;;;0.80;0.80;;;;;;;11.51;73.80;98525.06;4446751;32;34651;-82
2023/04/25 07:03:01;;;;;;;0.70;0.70;;;;;;;11.72;72.89;98525.19;4452231;32;33214;-80
2023/04/25 07:05:30;;;;;;;1.00;0.90;;;;;;;11.60;72.55;98530.81;4446629;32;33944;-80
2023/04/25 07:08:01;;;;;;;0.93;0.93;;;;;;;11.89;72.27;98522.00;4446265;32;33929;-82
2023/04/25 07:10:30;;;;;;;0.77;0.77;;;;;;;12.01;72.44;98521.56;4440991;32;33654;-79
2023/04/25 07:12:59;;;;;;;1.15;1.10;;;;;;;12.30;70.79;98528.22;4447578;32;33082;-82
2023/04/25 07:15:28;;;;;;;0.80;0.80;;;;;;;12.25;69.80;98524.97;4447234;32;34990;-82
2023/04/25 07:17:57;;;;;;;1.55;1.42;;;;;;;12.42;70.24;98531.25;4446100;32;33961;-79
2023/04/25 07:20:27;;;;;;;0.70;0.70;;;;;;;12.38;70.15;98533.12;4446571;32;34323;-79
2023/04/25 07:22:57;;;;;;;0.80;0.80;;;;;;;12.14;69.86;98522.75;4446542;32;34111;-81
2023/04/25 07:25:27;;;;;;;0.80;0.80;;;;;;;12.25;70.11;98530.16;4452014;32;34468;-80
2023/04/25 07:27:56;;;;;;;0.70;0.70;;;;;;;12.61;69.06;98529.59;4446378;32;34681;-79
2023/04/25 07:30:25;;;;;;;1.27;1.17;;;;;;;12.68;69.31;98527.59;4446320;32;33595;-78
2023/04/25 07:32:58;;;;;;;0.70;0.70;;;;;;;12.85;67.48;98534.72;4446930;32;35222;-79
2023/04/25 07:35:27;;;;;;;0.85;0.85;;;;;;;12.76;67.35;98531.59;4451880;32;34437;-80
2023/04/25 07:37:56;;;;;;;0.70;0.70;;;;;;;12.54;66.97;98525.56;4447747;32;34714;-79
2023/04/25 07:40:27;;;;;;;0.80;0.80;;;;;;;12.60;67.81;98539.19;4446691;32;34166;-82
2023/04/25 07:42:56;;;;;;;0.80;0.80;;;;;;;12.57;66.82;98543.66;4444833;32;32960;-81
2023/04/25 07:45:25;;;;;;;0.80;0.80;;;;;;;12.50;66.56;98550.03;4444291;32;33171;-80
2023/04/25 07:47:54;;;;;;;0.70;0.70;;;;;;;12.44;66.98;98550.25;4451379;32;33199;-79
2023/04/25 07:50:23;;;;;;;0.70;0.70;;;;;;;12.46;66.70;98543.22;4445900;32;34196;-82
2023/04/25 07:52:52;;;;;;;0.70;0.70;;;;;;;12.27;66.01;98540.50;4445263;32;34470;-81
2023/04/25 07:55:22;;;;;;;0.90;0.90;;;;;;;12.53;66.33;98542.91;4444926;32;33380;-80
2023/04/25 07:57:53;;;;;;;0.80;0.80;;;;;;;12.67;65.26;98538.94;4435260;32;33683;-81
2023/04/25 08:00:22;;;;;;;0.80;0.80;;;;;;;12.77;65.33;98530.69;4429160;32;33089;-80
2023/04/25 08:02:52;;;;;;;1.12;1.02;;;;;;;12.88;64.66;98532.88;4429123;32;33318;-79
2023/04/25 08:05:22;;;;;;;0.80;0.80;;;;;;;12.93;64.23;98543.09;4431600;32;33558;-82
2023/04/25 08:07:52;;;;;;;0.70;0.70;;;;;;;12.73;63.11;98536.06;4445002;32;33030;-81
2023/04/25 08:10:22;;;;;;;0.70;0.70;;;;;;;12.67;63.80;98529.37;4449972;32;33699;-81
2023/04/25 08:12:53;;;;;;;0.90;0.73;;;;;;;12.66;64.14;98534.62;4444503;32;34146;-80
2023/04/25 08:15:22;;;;;;;0.60;0.60;;;;;;;13.21;63.20;98537.56;4433745;32;34316;-79
2023/04/25 08:17:51;;;;;;;0.70;0.70;;;;;;;13.22;62.76;98544.47;4439741;32;33535;-81
2023/04/25 08:20:21;;;;;;;0.60;0.60;;;;;;;13.34;62.14;98530.97;4435875;32;33829;-80
2023/04/25 08:22:50;;;;;;;0.82;0.82;;;;;;;13.17;62.67;98542.06;4434936;32;33269;-80
2023/04/25 08:25:21;;;;;;;0.70;0.70;;;;;;;13.00;62.21;98545.37;4432159;32;36098;-81
2023/04/25 08:27:50;;;;;;;0.80;0.80;;;;;;;12.90;63.89;98546.66;4435764;32;33180;-79
2023/04/25 08:30:22;;;;;;;0.62;0.62;;;;;;;12.90;63.51;98546.66;4446084;32;34569;-81
2023/04/25 08:32:51;;;;;;;0.80;0.80;;;;;;;13.29;62.14;98547.69;4449240;32;34106;-80
2023/04/25 08:35:21;;;;;;;1.12;1.05;;;;;;;13.34;61.68;98550.97;4447055;32;34518;-80
2023/04/25 08:37:51;;;;;;;1.48;1.10;;;;;;;13.37;61.84;98558.63;4445984;32;33711;-81
2023/04/25 08:40:25;;;;;;;0.70;0.70;;;;;;;12.99;62.16;98558.44;4445870;32;33138;-81
2023/04/25 08:42:55;;;;;;;0.70;0.70;;;;;;;13.26;61.94;98561.66;4446762;32;33392;-82
2023/04/25 08:45:27;;;;;;;0.70;0.70;;;;;;;12.85;63.57;98563.38;4445801;32;34180;-81
2023/04/25 08:47:57;;;;;;;0.60;0.60;;;;;;;13.03;63.15;98560.03;4446110;32;34859;-81
2023/04/25 08:50:26;;;;;;;0.80;0.80;;;;;;;13.13;62.41;98558.72;4445925;32;33028;-79
2023/04/25 08:52:55;;;;;;;1.10;1.00;;;;;;;13.18;61.59;98561.97;4430036;32;33873;-81
2023/04/25 08:55:27;;;;;;;0.82;0.82;;;;;;;12.89;62.68;98570.16;4435537;32;34464;-80
2023/04/25 08:57:57;;;;;;;0.70;0.70;;;;;;;12.95;62.42;98568.16;4429601;32;33328;-81
2023/04/25 09:00:28;;;;;;;1.40;1.05;;;;;;;13.04;62.13;98572.12;4430364;32;33608;-82
2023/04/25 09:02:58;;;;;;;1.00;0.90;;;;;;;13.03;62.68;98575.66;4430397;32;32952;-81
2023/04/25 09:05:29;;;;;;;;;;;;;;;13.15;62.72;98572.53;4436040;32;33668;-80
2023/04/25 09:07:58;;;;;;;0.75;0.68;;;;;;;13.33;61.62;98573.53;4430035;32;34467;-80
2023/04/25 09:10:26;;;;;;;0.60;0.60;;;;;;;13.23;62.40;98573.03;4430117;32;33390;-79
2023/04/25 09:13:08;;;;;;;1.02;1.00;;;;;;;13.41;62.16;98581.06;4441398;32;33271;-81
2023/04/25 09:15:51;;;;;;;0.70;0.70;;;;;;;13.15;61.48;98585.56;4443597;32;34133;-80
2023/04/25 09:18:26;;;;;;;0.70;0.70;;;;;;;13.11;61.57;98567.50;4446876;32;34654;-82
2023/04/25 09:21:06;;;;;;;0.82;0.82;;;;;;;13.18;61.91;98579.38;4450880;32;33972;-82
2023/04/25 09:23:45;;;;;;;1.12;0.90;;;;;;;13.03;62.06;98566.06;4446034;32;34002;-81
2023/04/25 09:26:17;;;;;;;0.70;0.70;;;;;;;13.29;61.97;98558.09;4445798;32;33847;-80
2023/04/25 09:28:47;;;;;;;0.70;0.70;;;;;;;13.47;61.88;98569.50;4444189;32;34749;-80
2023/04/25 09:31:24;;;;;;;1.35;1.25;;;;;;;13.91;60.18;98554.50;4450600;32;33504;-81
2023/04/25 09:34:00;;;;;;;0.70;0.70;;;;;;;13.91;60.36;98559.72;4451395;32;33504;-79
2023/04/25 09:36:31;;;;;;;0.70;0.70;;;;;;;13.69;59.47;98566.81;4443668;32;34522;-79
2023/04/25 09:39:01;;;;;;;1.10;1.00;;;;;;;13.58;60.72;98565.53;4443010;32;34374;-80
2023/04/25 09:41:30;;;;;;;0.70;0.70;;;;;;;13.79;59.09;98563.72;4432232;32;32769;-81
2023/04/25 09:44:00;;;;;;;0.80;0.80;;;;;;;14.07;57.93;98558.13;4446107;32;33775;-81
2023/04/25 09:46:36;;;;;;;0.70;0.70;;;;;;;13.73;58.39;98550.97;4432682;32;33721;-79
2023/04/25 09:49:07;;;;;;;0.70;0.70;;;;;;;13.83;57.76;98559.25;4437903;32;34047;-80
2023/04/25 09:51:37;;;;;;;0.60;0.60;;;;;;;13.96;57.42;98557.75;4429039;32;33627;-80
2023/04/25 09:54:06;;;;;;;0.70;0.70;;;;;;;14.02;57.05;98557.50;4428938;32;33187;-79
2023/04/25 09:56:37;;;;;;;0.70;0.70;;;;;;;14.15;57.11;98572.59;4437444;32;33667;-81
2023/04/25 09:59:07;;;;;;;0.77;0.77;;;;;;;13.93;56.29;98565.72;4429278;32;33637;-81
2023/04/25 10:01:39;;;;;;;0.90;0.85;;;;;;;14.04;55.65;98567.87;4428886;32;33934;-82
2023/04/25 10:04:11;;;;;;;0.60;0.60;;;;;;;14.14;56.30;98563.91;4428823;32;33735;-80
2023/04/25 10:06:42;;;;;;;0.60;0.60;;;;;;;14.26;56.71;98565.97;4434265;32;34179;-80
2023/04/25 10:09:12;;;;;;;0.55;0.55;;;;;;;14.25;55.59;98569.47;4434596;32;33121;-82
2023/04/25 10:11:41;;;;;;;0.85;0.70;;;;;;;14.22;54.09;98571.38;4431367;32;34178;-79
2023/04/25 10:14:10;;;;;;;0.50;0.50;;;;;;;14.09;54.00;98565.91;4428845;32;33299;-81
2023/04/25 10:16:42;;;;;;;0.60;0.60;;;;;;;13.94;55.00;98567.44;4430681;32;34348;-79
2023/04/25 10:19:11;;;;;;;0.60;0.60;;;;;;;13.89;55.45;98556.34;4446205;32;34593;-79
2023/04/25 10:21:47;;;;;;;0.50;0.50;;;;;;;14.15;54.74;98562.16;4430553;32;33544;-81
2023/04/25 10:24:16;;;;;;;0.60;0.60;;;;;;;14.32;53.72;98564.81;4430565;32;33359;-79
2023/04/25 10:26:49;;;;;;;0.50;0.50;;;;;;;14.70;53.79;98564.81;4435352;32;34124;-79
2023/04/25 10:29:23;;;;;;;0.60;0.60;;;;;;;14.66;52.76;98565.88;4432572;32;33776;-81
2023/04/25 10:31:56;;;;;;;0.50;0.50;;;;;;;14.68;53.20;98566.66;4435574;32;34579;-80
2023/04/25 10:34:26;;;;;;;0.60;0.60;;;;;;;14.74;52.78;98566.38;4430519;32;33459;-80
2023/04/25 10:36:56;;;;;;;0.52;0.52;;;;;;;14.57;53.37;98554.13;4435071;32;34511;-81
2023/04/25 10:39:28;;;;;;;0.50;0.50;;;;;;;14.77;53.27;98555.78;4430417;32;34441;-79
2023/04/25 10:41:58;;;;;;;0.50;0.50;;;;;;;14.91;52.41;98558.56;4435980;32;33936;-81
2023/04/25 10:44:28;;;;;;;0.50;0.50;;;;;;;14.75;52.66;98570.66;4430661;32;33947;-81
2023/04/25 10:46:59;;;;;;;0.50;0.50;;;;;;;14.62;51.85;98556.53;4433400;32;33810;-80
2023/04/25 10:49:35;;;;;;;0.50;0.50;;;;;;;14.55;52.61;98569.00;4428967;32;33712;-79
2023/04/25 10:52:15;;;;;;;0.50;0.50;;;;;;;14.84;51.90;98578.06;4430651;32;34329;-82
2023/04/25 10:54:47;;;;;;;0.40;0.40;;;;;;;14.90;50.29;98575.13;4435729;32;34151;-79
2023/04/25 10:57:33;;;;;;;0.50;0.50;;;;;;;15.03;50.15;98577.13;4430356;32;33572;-80
2023/04/25 11:00:08;;;;;;;0.57;0.57;;;;;;;15.35;49.56;98571.16;4429578;32;34485;-81
2023/04/25 11:02:46;;;;;;;0.50;0.50;;;;;;;15.40;47.07;98576.16;4430598;32;32932;-81
2023/04/25 11:05:24;;;;;;;0.50;0.50;;;;;;;15.35;47.07;98572.94;4432819;32;34445;-81
2023/04/25 11:07:57;;;;;;;0.60;0.60;;;;;;;15.45;46.98;98570.72;4434238;32;34568;-81
2023/04/25 11:10:46;;;;;;;0.50;0.50;;;;;;;15.44;46.90;98576.84;4436650;32;34632;-81
2023/04/25 11:13:16;;;;;;;0.50;0.50;;;;;;;15.82;46.23;98571.44;4430839;32;34619;-82
2023/04/25 11:15:45;;;;;;;0.45;0.45;;;;;;;16.21;46.07;98558.00;4437243;32;33352;-80
2023/04/25 11:18:18;;;;;;;0.50;0.50;;;;;;;16.49;45.35;98583.50;4429392;32;32758;-80
2023/04/25 11:20:49;;;;;;;0.50;0.50;;;;;;;15.98;44.42;98582.78;4429899;32;33882;-79
2023/04/25 11:23:18;;;;;;;0.50;0.50;;;;;;;15.39;44.25;98584.94;4435895;32;33638;-82
2023/04/25 11:25:47;;;;;;;0.50;0.50;;;;;;;15.84;44.82;98580.91;4434744;32;33185;-81
2023/04/25 11:28:22;;;;;;;0.40;0.40;;;;;;;15.65;44.28;98586.19;4430414;32;34450;-82
2023/04/25 11:30:53;;;;;;;0.40;0.40;;;;;;;15.75;45.56;98587.47;4429556;32;33747;-81
2023/04/25 11:33:26;;;;;;;1.48;0.60;;;;;;;15.76;44.74;98583.91;4435696;32;33791;-80
2023/04/25 11:35:56;;;;;;;0.50;0.50;;;;;;;15.69;43.81;98592.97;4432999;32;31725;-80
2023/04/25 11:38:26;;;;;;;0.50;0.50;;;;;;;15.34;43.86;98592.13;4429851;32;33422;-81
2023/04/25 11:40:58;;;;;;;0.50;0.50;;;;;;;15.07;43.58;98599.59;4430283;32;34726;-80
2023/04/25 11:43:27;;;;;;;0.50;0.50;;;;;;;14.97;44.39;98598.34;4433665;32;33558;-80
2023/04/25 11:45:55;;;;;;;0.50;0.50;;;;;;;14.99;44.92;98605.19;4438508;32;33073;-81
2023/04/25 11:48:26;;;;;;;0.60;0.60;;;;;;;15.17;45.43;98605.19;4440164;32;33153;-80